Waswanipi, Canada
Current Conditions -  °F | °C
As of 12:00 AM on Thursday 23 Oct 2014 (Local Time) from CYNM Reporting Station
Clear Clear  
Wind Chill: 27°   Ceiling: Unl
Heat Index: 27°   Visibility: 9mi
Dew Point: 25°   Wind: 2mph
Humidity: 93%   Direction: 120°ESE
Pressure: 30.33"   Gusts: NA
Location:  49.65°N, 76.48°W
Report Text: CYNM 230400Z AUTO 12002KT 9SM CLR M03/M04 A3033 RMK ICG MISG SLP285
Loading
Personal Weather Stations






























Interactive Weather Map
Tropical Storm Tracking
New forecast layout! Learn more

10-Day Weather Forecast

Advertisements
Track Severe Weather on mobile